Time;durP1;ratioP1;P1;durP2;ratioP2;P2;SDS_P1;SDS_P2;PMS_P1;PMS_P2;Temp;Humidity;BMP_temperature;BMP_pressure;BME280_temperature;BME280_humidity;BME280_pressure;Samples;Min_cycle;Max_cycle;Signal;HPM_P1;HPM_P2
2020/12/18 00:01:30;;;;;;;107.67;53.75;;;;;;;5.30;72.78;101162.63;2203029;80;27618;-65
2020/12/18 00:04:51;;;;;;;100.67;54.80;;;;;;;5.33;72.84;101156.41;2182051;80;27723;-64
2020/12/18 00:07:53;;;;;;;113.37;56.42;;;;;;;5.35;72.78;101155.94;2165488;82;31129;-64
2020/12/18 00:10:55;;;;;;;112.17;54.13;;;;;;;5.35;72.75;101159.03;2165477;80;34030;-65
2020/12/18 00:13:58;;;;;;;106.65;55.78;;;;;;;5.35;72.75;101153.72;2194806;80;29153;-65
2020/12/18 00:17:00;;;;;;;96.90;49.58;;;;;;;5.35;72.74;101155.94;2165105;82;27587;-65
2020/12/18 00:20:06;;;;;;;95.92;49.60;;;;;;;5.34;72.77;101152.85;2165545;82;28741;-65
2020/12/18 00:23:09;;;;;;;101.70;50.92;;;;;;;5.35;72.79;101151.95;2200768;80;31127;-65
2020/12/18 00:26:11;;;;;;;95.75;50.65;;;;;;;5.39;72.81;101154.11;2213948;80;34500;-65
2020/12/18 00:29:13;;;;;;;99.62;52.23;;;;;;;5.43;72.84;101158.48;2214737;80;29160;-65
2020/12/18 00:32:15;;;;;;;99.55;52.03;;;;;;;5.47;72.83;101156.19;2212500;80;27702;-65
2020/12/18 00:35:19;;;;;;;96.70;52.33;;;;;;;5.52;72.81;101160.13;2214644;80;28826;-64
2020/12/18 00:38:22;;;;;;;99.58;50.92;;;;;;;5.55;72.77;101165.37;2215105;80;30326;-65
2020/12/18 00:41:25;;;;;;;101.12;51.00;;;;;;;5.56;72.77;101165.37;2211949;80;33028;-65
2020/12/18 00:44:27;;;;;;;96.70;51.95;;;;;;;5.59;72.74;101167.99;2188982;80;29172;-65
2020/12/18 00:47:30;;;;;;;93.05;48.80;;;;;;;5.60;72.71;101173.73;2165577;82;27630;-65
2020/12/18 00:50:33;;;;;;;101.97;50.10;;;;;;;5.60;72.67;101171.08;2165408;82;28827;-65
2020/12/18 00:53:36;;;;;;;99.70;51.35;;;;;;;5.61;72.67;101171.94;2208730;80;32096;-65
2020/12/18 00:56:44;;;;;;;95.72;48.42;;;;;;;5.61;72.66;101174.60;2209225;79;33111;-65
2020/12/18 00:59:48;;;;;;;97.75;46.90;;;;;;;5.61;72.71;101181.25;2214709;80;30128;-65
2020/12/18 01:02:50;;;;;;;95.10;47.45;;;;;;;5.61;72.72;101184.80;2211237;80;28248;-65
2020/12/18 01:05:53;;;;;;;95.60;49.23;;;;;;;5.64;72.71;101178.55;2176517;81;28823;-65
2020/12/18 01:08:55;;;;;;;101.20;51.48;;;;;;;5.68;72.75;101183.36;2176235;81;31617;-65
2020/12/18 01:11:57;;;;;;;107.92;52.23;;;;;;;5.71;72.71;101180.66;2189822;80;33128;-65
2020/12/18 01:15:00;;;;;;;120.08;59.10;;;;;;;5.73;72.70;101173.55;2214911;80;29276;-65
2020/12/18 01:18:03;;;;;;;128.93;61.00;;;;;;;5.75;72.64;101181.91;2215045;80;28132;-65
2020/12/18 01:21:05;;;;;;;131.50;62.23;;;;;;;5.77;72.60;101181.44;2213934;80;28805;-65
2020/12/18 01:24:07;;;;;;;116.90;57.13;;;;;;;5.77;72.62;101184.56;2187704;80;31529;-66
2020/12/18 01:27:10;;;;;;;115.30;55.05;;;;;;;5.77;72.59;101189.89;2202326;80;33171;-65
2020/12/18 01:30:13;;;;;;;104.83;52.78;;;;;;;5.76;72.60;101194.30;2214927;80;29194;-65
2020/12/18 01:33:15;;;;;;;99.50;48.80;;;;;;;5.77;72.63;101188.55;2175456;80;27732;-65
2020/12/18 01:36:18;;;;;;;87.05;43.35;;;;;;;5.77;72.61;101199.19;2165829;82;28058;-65
2020/12/18 01:39:21;;;;;;;78.90;41.53;;;;;;;5.75;72.62;101203.65;2207610;80;31132;-64
2020/12/18 01:42:23;;;;;;;83.62;42.73;;;;;;;5.76;72.71;101200.09;2191504;80;34044;-65
2020/12/18 01:45:25;;;;;;;81.63;42.33;;;;;;;5.77;72.58;101201.38;2166849;80;29240;-65
2020/12/18 01:48:28;;;;;;;82.15;40.73;;;;;;;5.80;72.65;101200.91;2166722;82;27687;-64
2020/12/18 01:51:30;;;;;;;82.50;41.40;;;;;;;5.83;72.72;101200.41;2174461;80;28898;-65
2020/12/18 01:54:33;;;;;;;78.90;41.85;;;;;;;5.87;72.75;101205.25;2211942;80;32482;-65
2020/12/18 01:57:37;;;;;;;71.55;38.73;;;;;;;5.88;72.66;101214.52;2205604;80;33096;-64
2020/12/18 02:00:43;;;;;;;50.65;26.77;;;;;;;5.90;72.70;101206.50;2175886;81;29170;-65
2020/12/18 02:03:45;;;;;;;64.95;34.98;;;;;;;5.92;72.70;101207.36;2180018;81;27709;-65
2020/12/18 02:06:50;;;;;;;64.97;35.68;;;;;;;5.91;72.69;101210.48;2175556;81;28840;-65
2020/12/18 02:09:52;;;;;;;59.30;34.05;;;;;;;5.91;72.62;101212.25;2175928;81;31150;-65
2020/12/18 02:12:58;;;;;;;56.25;32.83;;;;;;;5.90;72.65;101222.46;2177567;80;33111;-65
2020/12/18 02:16:00;;;;;;;52.30;29.27;;;;;;;5.89;72.68;101222.03;2175620;81;29171;-65
2020/12/18 02:19:03;;;;;;;46.25;27.67;;;;;;;5.89;72.73;101223.36;2176274;81;27590;-65
2020/12/18 02:22:14;;;;;;;46.15;26.33;;;;;;;5.90;72.78;101225.12;2182765;80;28806;-65
2020/12/18 02:25:18;;;;;;;46.90;26.75;;;;;;;5.93;72.78;101219.33;2150506;80;31197;-65
2020/12/18 02:28:20;;;;;;;43.20;25.55;;;;;;;5.96;72.76;101215.73;2189915;80;33204;-65
2020/12/18 02:31:23;;;;;;;37.30;24.43;;;;;;;5.98;72.65;101223.23;2186608;81;28479;-65
2020/12/18 02:34:28;;;;;;;41.35;24.90;;;;;;;5.96;72.55;101222.84;2143094;83;27716;-65
2020/12/18 02:37:31;;;;;;;43.92;24.40;;;;;;;5.95;72.44;101223.75;2137354;82;29810;-65
2020/12/18 02:40:33;;;;;;;41.53;25.00;;;;;;;5.92;72.42;101229.53;2134942;83;32059;-65
2020/12/18 02:43:35;;;;;;;44.48;24.67;;;;;;;5.90;72.38;101226.45;2165267;82;33124;-65
2020/12/18 02:46:37;;;;;;;38.70;23.35;;;;;;;5.87;72.38;101229.18;2161611;82;29061;-65
2020/12/18 02:49:39;;;;;;;36.30;23.73;;;;;;;5.85;72.46;101229.66;2155058;82;27609;-65
2020/12/18 02:52:43;;;;;;;37.67;23.25;;;;;;;5.83;72.49;101234.98;2143986;82;28801;-65
2020/12/18 02:55:46;;;;;;;38.53;23.05;;;;;;;5.80;72.53;101231.02;2171919;81;31133;-65
2020/12/18 02:58:48;;;;;;;32.10;20.45;;;;;;;5.78;72.55;101233.72;2171867;82;33076;-65
2020/12/18 03:01:50;;;;;;;35.17;20.60;;;;;;;5.76;72.54;101229.34;2197044;80;29238;-65
2020/12/18 03:04:53;;;;;;;33.53;20.40;;;;;;;5.73;72.54;101233.36;2171944;81;27616;-64
2020/12/18 03:07:55;;;;;;;31.27;20.57;;;;;;;5.72;72.49;101233.80;2145657;83;30121;-65
2020/12/18 03:10:57;;;;;;;32.40;20.77;;;;;;;5.71;72.42;101237.82;2144814;83;31255;-65
2020/12/18 03:13:59;;;;;;;35.75;21.25;;;;;;;5.69;72.33;101230.31;2109135;84;34460;-65
2020/12/18 03:17:02;;;;;;;34.80;21.50;;;;;;;5.68;72.37;101239.19;2109466;84;29602;-65
2020/12/18 03:20:05;;;;;;;37.42;21.55;;;;;;;5.65;72.47;101236.56;2123842;83;27637;-66
2020/12/18 03:23:07;;;;;;;29.45;20.23;;;;;;;5.63;72.47;101236.59;2140583;82;28830;-65
2020/12/18 03:26:09;;;;;;;35.33;22.13;;;;;;;5.60;72.55;101236.20;2102470;84;30947;-65
2020/12/18 03:29:12;;;;;;;36.98;20.92;;;;;;;5.60;72.55;101237.97;2102373;84;33112;-65
2020/12/18 03:32:14;;;;;;;31.33;20.37;;;;;;;5.57;72.58;101235.34;2119751;83;30508;-64
2020/12/18 03:35:16;;;;;;;33.45;21.70;;;;;;;5.55;72.59;101243.35;2139369;82;27583;-65
2020/12/18 03:38:18;;;;;;;30.77;19.48;;;;;;;5.53;72.63;101240.30;2143197;82;28826;-65
2020/12/18 03:41:21;;;;;;;35.58;21.20;;;;;;;5.48;72.68;101247.88;2141490;83;31590;-65
2020/12/18 03:44:24;;;;;;;33.42;20.23;;;;;;;5.47;72.76;101250.09;2122122;83;34072;-65
2020/12/18 03:47:26;;;;;;;31.57;20.40;;;;;;;5.48;72.81;101247.88;2101010;84;29155;-65
2020/12/18 03:50:28;;;;;;;28.92;19.37;;;;;;;5.51;72.85;101256.25;2101105;84;27750;-65
2020/12/18 03:53:31;;;;;;;31.20;20.55;;;;;;;5.54;72.87;101250.89;2103085;83;29831;-65
2020/12/18 03:56:33;;;;;;;32.20;20.35;;;;;;;5.57;72.84;101257.50;2101118;84;31147;-65
2020/12/18 03:59:35;;;;;;;28.75;19.25;;;;;;;5.56;72.77;101247.77;2131414;83;33062;-65
2020/12/18 04:02:37;;;;;;;30.68;18.92;;;;;;;5.55;72.69;101252.66;2120801;83;29225;-64
2020/12/18 04:05:39;;;;;;;28.85;18.23;;;;;;;5.52;72.63;101254.02;2100919;83;27770;-65
2020/12/18 04:08:41;;;;;;;24.87;16.90;;;;;;;5.47;72.59;101250.09;2102860;83;28840;-64
2020/12/18 04:11:44;;;;;;;30.85;17.98;;;;;;;5.44;72.58;101254.58;2142443;83;31142;-65
2020/12/18 04:14:46;;;;;;;30.62;18.30;;;;;;;5.39;72.60;101251.09;2143891;83;33988;-64
2020/12/18 04:17:49;;;;;;;26.60;17.37;;;;;;;5.36;72.61;101250.70;2144081;83;29204;-65
2020/12/18 04:20:51;;;;;;;28.32;17.12;;;;;;;5.32;72.63;101251.16;2133228;82;27728;-65
2020/12/18 04:23:53;;;;;;;26.05;16.23;;;;;;;5.28;72.60;101256.11;2135773;83;29763;-66
2020/12/18 04:26:55;;;;;;;29.45;16.42;;;;;;;5.25;72.54;101254.81;2136622;83;32154;-67
2020/12/18 04:29:58;;;;;;;27.15;17.00;;;;;;;5.23;72.48;101261.02;2138559;83;33123;-65
2020/12/18 04:33:00;;;;;;;29.95;17.52;;;;;;;5.20;72.54;101257.96;2143590;83;29146;-67
2020/12/18 04:36:02;;;;;;;48.28;25.30;;;;;;;5.20;72.48;101259.75;2129101;83;27836;-65
2020/12/18 04:39:05;;;;;;;49.77;25.12;;;;;;;5.16;72.45;101262.44;2102498;84;28829;-65
2020/12/18 04:42:08;;;;;;;54.45;26.68;;;;;;;5.10;72.44;101267.81;2102551;84;31367;-65
2020/12/18 04:45:11;;;;;;;49.23;25.35;;;;;;;5.10;72.37;101269.14;2102531;84;33148;-65
2020/12/18 04:48:14;;;;;;;50.58;26.25;;;;;;;5.05;72.30;101272.75;2105129;83;29385;-65
2020/12/18 04:51:23;;;;;;;51.25;25.68;;;;;;;4.97;72.15;101271.50;2107661;83;27691;-65
2020/12/18 04:54:28;;;;;;;62.95;28.62;;;;;;;4.89;72.11;101275.56;2138410;83;28903;-65
2020/12/18 04:57:34;;;;;;;60.45;28.10;;;;;;;4.79;72.10;101275.23;2188726;78;31126;-65
2020/12/18 05:00:37;;;;;;;57.15;27.37;;;;;;;4.69;72.21;101277.10;2160401;80;34042;-65
2020/12/18 05:03:40;;;;;;;55.30;25.75;;;;;;;4.61;72.26;101282.48;2103218;83;29158;-66
2020/12/18 05:06:42;;;;;;;47.30;23.47;;;;;;;4.53;72.36;101284.30;2145058;81;27780;-65
2020/12/18 05:09:51;;;;;;;45.28;21.40;;;;;;;4.46;72.47;101288.79;2212240;80;28753;-64
2020/12/18 05:12:53;;;;;;;34.30;19.60;;;;;;;4.44;72.58;101287.91;2211264;80;31143;-65
2020/12/18 05:15:59;;;;;;;32.03;19.30;;;;;;;4.42;72.69;101285.72;2180458;80;33025;-64
2020/12/18 05:19:04;;;;;;;31.65;18.82;;;;;;;4.43;72.70;101289.27;2146801;81;30113;-65
2020/12/18 05:22:10;;;;;;;29.82;18.57;;;;;;;4.46;72.68;101289.25;2165543;82;27612;-65
2020/12/18 05:25:14;;;;;;;;;;;;;;;4.46;72.67;101294.55;2168069;82;28846;-65
2020/12/18 05:28:21;;;;;;;29.77;18.32;;;;;;;4.44;72.48;101297.20;2209570;80;31143;-65
2020/12/18 05:31:23;;;;;;;26.40;17.52;;;;;;;4.40;72.37;101291.48;2196842;80;32893;-65
2020/12/18 05:34:29;;;;;;;29.72;17.35;;;;;;;4.34;72.12;101301.70;2165388;82;29167;-67
2020/12/18 05:37:37;;;;;;;27.73;16.95;;;;;;;4.26;72.05;101302.22;2206678;80;27679;-65
2020/12/18 05:40:46;;;;;;;28.67;17.27;;;;;;;4.17;71.88;101300.94;2214795;80;29780;-65
2020/12/18 05:43:49;;;;;;;26.73;16.17;;;;;;;4.06;71.86;101297.92;2213235;79;31126;-64
2020/12/18 05:46:52;;;;;;;26.57;15.43;;;;;;;3.93;71.70;101302.88;2204459;79;33102;-65
2020/12/18 05:49:54;;;;;;;26.37;16.17;;;;;;;3.80;71.66;101312.66;2174096;80;29325;-65
2020/12/18 05:52:59;;;;;;;29.23;16.85;;;;;;;3.67;71.67;101314.47;2165069;82;27723;-64
2020/12/18 05:56:01;;;;;;;35.17;19.48;;;;;;;3.54;71.58;101310.12;2190502;79;28902;-64
2020/12/18 05:59:09;;;;;;;31.68;18.48;;;;;;;3.40;71.54;101313.71;2189209;80;30976;-64
2020/12/18 06:02:22;;;;;;;31.03;16.97;;;;;;;3.29;71.56;101312.42;2321959;76;27743;-63
2020/12/18 06:05:26;;;;;;;28.60;17.23;;;;;;;3.12;71.56;101315.13;2276692;77;27594;-63
2020/12/18 06:08:29;;;;;;;29.30;17.10;;;;;;;3.00;71.59;101317.35;2301416;77;28747;-62
2020/12/18 06:11:31;;;;;;;25.97;16.48;;;;;;;2.92;71.72;101312.95;2301311;77;31140;-62
2020/12/18 06:14:34;;;;;;;28.15;15.88;;;;;;;2.84;71.72;101325.73;2300599;77;33126;-63
2020/12/18 06:17:36;;;;;;;29.70;16.00;;;;;;;2.79;71.74;101329.28;2302137;77;28607;-63
2020/12/18 06:20:39;;;;;;;28.17;15.30;;;;;;;2.70;71.79;101330.16;2303581;77;27622;-62
2020/12/18 06:23:45;;;;;;;29.42;16.50;;;;;;;2.64;72.00;101336.34;2236075;75;28025;-62
2020/12/18 06:26:46;;;;;;;;;;;;;;;2.56;71.96;101336.34;2296957;77;31212;-62
2020/12/18 06:29:49;;;;;;;27.05;14.80;;;;;;;2.49;72.20;101349.56;2300238;77;33121;-63
2020/12/18 06:32:55;;;;;;;32.90;17.00;;;;;;;2.41;72.20;101356.17;2285613;77;28847;-63
2020/12/18 06:35:57;;;;;;;29.60;16.85;;;;;;;2.34;72.15;101350.00;2285776;77;27677;-63
2020/12/18 06:39:00;;;;;;;27.02;15.03;;;;;;;2.26;72.22;101359.23;2285897;77;28802;-63
2020/12/18 06:42:25;;;;;;;26.73;15.28;;;;;;;2.21;72.20;101361.44;2285560;77;31344;-63
2020/12/18 06:45:27;;;;;;;54.25;26.37;;;;;;;2.17;72.23;101361.84;2285876;77;33161;-63
2020/12/18 06:48:30;;;;;;;42.03;22.58;;;;;;;2.14;72.18;101363.19;2285609;77;29080;-63
2020/12/18 06:51:33;;;;;;;32.33;17.32;;;;;;;2.11;72.25;101360.53;2286263;77;27629;-64
2020/12/18 06:54:35;;;;;;;41.13;24.15;;;;;;;2.09;72.22;101364.92;2286123;77;29704;-64
2020/12/18 06:57:38;;;;;;;45.63;23.95;;;;;;;2.06;72.28;101376.38;2301612;77;31270;-64
2020/12/18 07:00:58;;;;;;;38.60;20.02;;;;;;;2.02;72.29;101371.06;2287625;77;33075;-63
2020/12/18 07:04:01;;;;;;;36.28;20.90;;;;;;;1.97;72.23;101373.69;2242178;78;29811;-63
2020/12/18 07:07:21;;;;;;;59.38;34.58;;;;;;;1.90;72.20;101376.75;2265776;78;27728;-63
2020/12/18 07:10:30;;;;;;;47.50;26.15;;;;;;;1.86;72.40;101383.35;2265753;78;28802;-63
2020/12/18 07:13:33;;;;;;;37.67;20.97;;;;;;;1.81;72.38;101389.95;2275370;77;31185;-63
2020/12/18 07:16:36;;;;;;;39.85;21.77;;;;;;;1.79;72.42;101393.02;2282229;77;33179;-65
2020/12/18 07:19:41;;;;;;;38.98;22.95;;;;;;;1.77;72.48;101394.77;2268546;77;29797;-63
2020/12/18 07:22:43;;;;;;;45.12;22.50;;;;;;;1.76;72.54;101394.31;2259127;78;27692;-62
2020/12/18 07:25:47;;;;;;;39.25;21.33;;;;;;;1.76;72.68;101400.92;2282796;78;28806;-63
2020/12/18 07:28:50;;;;;;;41.88;24.35;;;;;;;1.75;72.67;101393.41;2273678;77;31200;-62
2020/12/18 07:31:57;;;;;;;42.10;23.05;;;;;;;1.75;72.75;101401.80;2306889;77;33929;-63
2020/12/18 07:35:07;;;;;;;46.60;25.52;;;;;;;1.75;72.69;101402.66;2306645;77;28857;-63
2020/12/18 07:38:20;;;;;;;48.55;25.60;;;;;;;1.76;72.80;101404.88;2306660;77;27772;-63
2020/12/18 07:41:27;;;;;;;45.75;23.95;;;;;;;1.78;72.85;101407.97;2306762;77;29500;-63
2020/12/18 07:44:30;;;;;;;44.83;22.80;;;;;;;1.85;72.99;101411.97;2303608;77;31202;-63
2020/12/18 07:47:40;;;;;;;49.90;25.00;;;;;;;1.94;73.01;101406.70;2306725;77;33012;-63
2020/12/18 07:51:11;;;;;;;46.37;25.12;;;;;;;2.04;73.09;101407.20;2300682;77;29804;-64
2020/12/18 07:54:17;;;;;;;45.63;24.47;;;;;;;2.18;73.13;101414.30;2265000;78;27581;-65
2020/12/18 07:57:20;;;;;;;45.98;25.92;;;;;;;2.30;73.21;101409.48;2264637;78;29691;-64
2020/12/18 08:00:22;;;;;;;42.88;25.30;;;;;;;2.41;73.19;101403.32;2264810;78;32097;-64
2020/12/18 08:03:25;;;;;;;50.10;25.20;;;;;;;2.51;73.31;101405.55;2264933;78;33096;-64
2020/12/18 08:06:29;;;;;;;46.33;26.55;;;;;;;2.57;73.31;101408.20;2264983;78;28852;-64
2020/12/18 08:09:32;;;;;;;44.85;23.90;;;;;;;2.65;73.40;101411.32;2265060;78;27638;-65
2020/12/18 08:12:35;;;;;;;43.48;22.67;;;;;;;2.72;73.55;101415.72;2264844;77;29713;-64
2020/12/18 08:15:37;;;;;;;39.35;21.93;;;;;;;2.80;73.76;101415.30;2303574;77;32004;-64
2020/12/18 08:18:47;;;;;;;36.20;19.23;;;;;;;2.93;73.85;101425.42;2306802;77;34011;-64
2020/12/18 08:21:50;;;;;;;34.70;17.77;;;;;;;3.06;74.01;101426.77;2306650;77;28862;-64
2020/12/18 08:24:54;;;;;;;34.58;19.05;;;;;;;3.21;74.09;101428.52;2280017;77;28176;-63
2020/12/18 08:27:57;;;;;;;36.00;18.85;;;;;;;3.35;74.23;101421.43;2304041;77;28802;-64
2020/12/18 08:31:05;;;;;;;39.48;21.48;;;;;;;3.50;74.21;101422.72;2264890;78;31124;-65
2020/12/18 08:34:09;;;;;;;46.37;20.62;;;;;;;3.65;74.14;101423.56;2264612;78;34473;-64
2020/12/18 08:37:14;;;;;;;54.33;21.95;;;;;;;3.80;74.07;101425.30;2264869;78;29733;-63
2020/12/18 08:40:26;;;;;;;55.45;23.32;;;;;;;3.93;74.04;101416.41;2264414;78;27658;-63
2020/12/18 08:43:29;;;;;;;64.00;26.45;;;;;;;4.05;73.92;101415.94;2264831;78;28807;-63
2020/12/18 08:46:36;;;;;;;61.28;25.10;;;;;;;4.16;73.85;101426.05;2265012;78;31273;-64
2020/12/18 08:49:38;;;;;;;45.92;22.20;;;;;;;4.25;73.71;101429.09;2266121;77;33098;-63
2020/12/18 08:52:43;;;;;;;27.13;15.98;;;;;;;4.32;73.63;101427.29;2265121;78;28921;-63
2020/12/18 08:55:46;;;;;;;40.58;19.30;;;;;;;4.40;73.62;101432.09;2264874;78;28119;-63
2020/12/18 08:58:54;;;;;;;32.67;18.07;;;;;;;4.50;73.67;101439.55;2264775;77;29366;-63
2020/12/18 09:01:56;;;;;;;31.95;18.10;;;;;;;4.62;73.71;101442.58;2262264;78;31135;-63
2020/12/18 09:05:27;;;;;;;38.17;18.65;;;;;;;4.75;73.63;101437.63;2264349;78;33113;-63
2020/12/18 09:08:29;;;;;;;36.55;19.40;;;;;;;4.87;73.65;101435.33;2264508;78;28853;-64
2020/12/18 09:11:45;;;;;;;34.05;19.15;;;;;;;5.01;73.41;101436.56;2264627;78;27693;-64
2020/12/18 09:15:04;;;;;;;31.25;17.55;;;;;;;5.08;73.16;101437.39;2264444;78;30050;-64
2020/12/18 09:18:30;;;;;;;31.25;18.87;;;;;;;5.17;73.17;101438.19;2263999;78;31118;-63
2020/12/18 09:21:36;;;;;;;33.42;19.23;;;;;;;5.24;72.83;101439.45;2285256;77;33104;-64
2020/12/18 09:24:38;;;;;;;28.10;15.32;;;;;;;5.32;72.99;101434.49;2285429;77;28831;-63
2020/12/18 09:27:41;;;;;;;39.65;15.25;;;;;;;5.40;72.76;101432.22;2284835;77;27643;-64
2020/12/18 09:30:53;;;;;;;28.55;14.98;;;;;;;5.46;72.75;101434.38;2303452;77;29683;-64
2020/12/18 09:33:55;;;;;;;33.95;21.00;;;;;;;5.53;72.78;101428.54;2303443;77;31144;-64
2020/12/18 09:37:12;;;;;;;33.08;20.65;;;;;;;5.61;72.70;101428.45;2277065;77;33115;-64
2020/12/18 09:40:14;;;;;;;34.53;21.42;;;;;;;5.69;72.52;101429.27;2260217;78;29801;-64
2020/12/18 09:43:18;;;;;;;26.12;14.58;;;;;;;5.76;72.41;101423.44;2264379;78;27642;-64
2020/12/18 09:49:36;;;;;;;32.23;17.80;;;;;;;6.00;72.12;101424.95;2248680;77;27773;-63
2020/12/18 09:52:39;;;;;;;31.42;18.02;;;;;;;6.03;71.95;101422.26;2228850;79;27751;-63
2020/12/18 09:55:42;;;;;;;33.67;18.73;;;;;;;6.12;71.78;101425.69;2228525;79;28904;-63
2020/12/18 09:58:45;;;;;;;37.73;21.23;;;;;;;6.20;71.65;101420.70;2228343;79;31148;-66
2020/12/18 10:01:52;;;;;;;32.30;18.15;;;;;;;6.26;71.63;101425.05;2228591;79;33134;-63
2020/12/18 10:04:57;;;;;;;25.15;16.30;;;;;;;6.33;71.48;101424.08;2228263;79;28544;-62
2020/12/18 10:08:00;;;;;;;27.27;15.80;;;;;;;6.39;71.31;101427.10;2228828;79;27516;-63
2020/12/18 10:11:03;;;;;;;27.25;16.37;;;;;;;6.45;71.35;101420.37;2228584;79;28067;-62
2020/12/18 10:14:06;;;;;;;23.42;14.63;;;;;;;6.52;71.26;101420.69;2228903;79;31150;-62
2020/12/18 10:17:09;;;;;;;19.82;14.18;;;;;;;6.57;70.94;101409.97;2227809;79;33650;-62
2020/12/18 10:20:12;;;;;;;21.82;13.50;;;;;;;6.60;70.64;101405.06;2228401;79;28846;-63
2020/12/18 10:23:14;;;;;;;161.43;81.87;;;;;;;6.63;70.84;101406.33;2228285;79;28210;-62
2020/12/18 10:26:19;;;;;;;34.18;20.08;;;;;;;6.70;70.91;101404.02;2228359;79;28622;-62
2020/12/18 10:29:21;;;;;;;29.98;18.25;;;;;;;6.78;70.63;101399.45;2228233;79;31113;-62
2020/12/18 10:32:26;;;;;;;34.33;16.87;;;;;;;6.86;70.53;101398.00;2227122;79;33134;-62
2020/12/18 10:38:56;;;;;;;32.42;19.15;;;;;;;6.98;70.29;101388.90;2182851;81;27724;-64
2020/12/18 10:42:02;;;;;;;98.47;63.68;;;;;;;7.04;69.89;101391.91;2182752;81;28812;-63
2020/12/18 10:45:04;;;;;;;134.67;82.37;;;;;;;7.07;70.01;101383.86;2182903;80;31189;-63
2020/12/18 10:48:09;;;;;;;104.35;67.17;;;;;;;7.12;69.98;101390.86;2182666;81;33086;-64
2020/12/18 10:51:12;;;;;;;105.00;64.82;;;;;;;7.18;69.83;101376.58;2182700;81;29742;-63
2020/12/18 10:54:16;;;;;;;95.35;56.25;;;;;;;7.21;69.70;101380.50;2182914;81;27758;-63
2020/12/18 10:57:20;;;;;;;45.30;28.25;;;;;;;7.22;69.55;101375.59;2182937;81;29479;-64
2020/12/18 11:00:23;;;;;;;50.63;31.33;;;;;;;7.25;69.43;101376.88;2181632;80;32348;-64
2020/12/18 11:03:25;;;;;;;54.03;36.85;;;;;;;7.30;69.46;101370.12;2181092;81;33098;-64
2020/12/18 11:06:27;;;;;;;45.33;25.30;;;;;;;7.34;69.26;101370.97;2181522;81;29773;-63
2020/12/18 11:09:30;;;;;;;41.45;22.80;;;;;;;7.37;69.21;101369.55;2182191;81;27645;-64
2020/12/18 11:12:32;;;;;;;30.60;17.07;;;;;;;7.36;69.04;101370.02;2182052;81;28817;-64
2020/12/18 11:15:35;;;;;;;29.48;15.20;;;;;;;7.42;69.13;101369.02;2181978;81;31123;-65
2020/12/18 11:18:37;;;;;;;28.27;14.35;;;;;;;7.47;69.13;101367.59;2181508;80;33067;-65
2020/12/18 11:21:43;;;;;;;25.88;14.90;;;;;;;7.55;69.01;101375.86;2182162;80;29018;-64
2020/12/18 11:24:44;;;;;;;26.23;15.98;;;;;;;7.61;68.83;101364.22;2181925;81;27755;-65
2020/12/18 11:27:47;;;;;;;34.30;17.05;;;;;;;7.67;68.63;101366.74;2181927;81;28817;-64
2020/12/18 11:30:49;;;;;;;31.57;18.10;;;;;;;7.71;68.46;101359.55;2182120;81;32003;-64
2020/12/18 11:33:52;;;;;;;29.52;17.15;;;;;;;7.75;68.51;101358.14;2181915;80;33958;-64
2020/12/18 11:36:56;;;;;;;32.98;17.42;;;;;;;7.87;68.64;101358.78;2178047;80;28864;-64
2020/12/18 11:39:59;;;;;;;32.93;18.37;;;;;;;7.97;68.06;101359.47;2168724;82;28130;-63
2020/12/18 11:43:01;;;;;;;40.55;23.50;;;;;;;8.01;67.99;101365.17;2165696;82;28877;-64
2020/12/18 11:46:03;;;;;;;32.80;22.35;;;;;;;8.05;67.73;101361.50;2146992;82;31155;-63
2020/12/18 11:49:06;;;;;;;34.38;19.73;;;;;;;8.06;67.78;101367.27;2113295;83;32270;-64
2020/12/18 11:52:08;;;;;;;34.03;18.48;;;;;;;8.08;67.47;101357.91;2116049;82;28857;-64
2020/12/18 11:55:10;;;;;;;33.18;16.80;;;;;;;8.07;67.36;101362.34;2157325;82;27640;-64
2020/12/18 11:58:13;;;;;;;32.20;20.15;;;;;;;8.06;67.37;101359.25;2116109;83;29841;-63
2020/12/18 12:01:24;;;;;;;41.25;23.73;;;;;;;8.07;67.27;101354.34;2115325;84;32187;-64
2020/12/18 12:04:27;;;;;;;27.95;17.77;;;;;;;8.05;67.34;101350.83;2115262;83;32999;-64
2020/12/18 12:07:30;;;;;;;42.60;19.82;;;;;;;8.05;67.21;101348.16;2115254;84;29780;-63
2020/12/18 12:10:34;;;;;;;32.25;18.60;;;;;;;8.03;67.36;101344.20;2115325;84;28132;-63
2020/12/18 12:13:36;;;;;;;68.35;35.20;;;;;;;8.06;67.17;101345.47;2116170;82;30146;-64
2020/12/18 12:16:39;;;;;;;55.58;29.05;;;;;;;8.07;66.96;101331.66;2157233;82;31140;-64
2020/12/18 12:19:42;;;;;;;53.42;27.22;;;;;;;8.08;66.97;101333.42;2116115;84;33035;-63
2020/12/18 12:22:44;;;;;;;39.15;22.45;;;;;;;8.12;67.03;101345.78;2156939;82;28919;-63
2020/12/18 12:25:46;;;;;;;31.80;19.07;;;;;;;8.14;66.95;101339.06;2116232;83;27720;-64
2020/12/18 12:28:48;;;;;;;26.05;16.70;;;;;;;8.13;67.00;101346.20;2175215;81;28740;-63
2020/12/18 12:31:51;;;;;;;32.90;17.62;;;;;;;8.12;66.83;101352.45;2186167;81;30311;-64
2020/12/18 12:34:53;;;;;;;31.52;18.65;;;;;;;8.09;66.63;101347.66;2168070;81;33093;-63
2020/12/18 12:37:55;;;;;;;43.48;25.52;;;;;;;8.06;66.70;101342.80;2168163;80;28910;-64
2020/12/18 12:40:58;;;;;;;35.65;19.67;;;;;;;8.05;66.86;101337.48;2183840;81;27740;-63
2020/12/18 12:44:00;;;;;;;39.50;22.17;;;;;;;8.02;66.76;101336.24;2197907;81;28823;-64
2020/12/18 12:47:03;;;;;;;41.42;22.05;;;;;;;7.99;66.68;101334.97;2197414;81;31247;-64
2020/12/18 12:50:06;;;;;;;38.15;24.47;;;;;;;7.93;66.67;101337.33;2197077;81;33101;-64
2020/12/18 12:53:08;;;;;;;33.25;18.48;;;;;;;7.87;66.58;101334.30;2197766;81;28843;-65
2020/12/18 12:56:16;;;;;;;36.63;22.27;;;;;;;7.81;66.69;101337.12;2079029;84;27731;-64
2020/12/18 12:59:19;;;;;;;38.15;26.00;;;;;;;7.78;66.83;101334.98;2059222;85;28829;-64
2020/12/18 13:02:22;;;;;;;36.70;22.93;;;;;;;7.75;66.93;101333.24;2070225;85;30928;-64
2020/12/18 13:05:24;;;;;;;28.35;17.95;;;;;;;7.71;66.95;101331.55;2070080;85;33101;-63
2020/12/18 13:08:27;;;;;;;64.12;44.65;;;;;;;7.69;66.90;101329.39;2070187;85;28863;-63
2020/12/18 13:11:39;;;;;;;44.95;31.60;;;;;;;7.66;66.99;101326.78;2076940;84;27797;-63
2020/12/18 13:14:43;;;;;;;27.98;17.77;;;;;;;7.63;66.94;101326.84;2211197;78;29241;-64
2020/12/18 13:17:49;;;;;;;37.28;21.80;;;;;;;7.63;66.93;101333.04;2129329;83;31447;-63
2020/12/18 13:20:52;;;;;;;32.25;18.23;;;;;;;7.60;67.12;101333.13;2129324;83;32829;-64
2020/12/18 13:23:55;;;;;;;33.85;19.62;;;;;;;7.58;67.22;101330.47;2129250;83;28867;-64
2020/12/18 13:26:57;;;;;;;34.00;19.70;;;;;;;7.58;67.38;101329.61;2129549;83;27596;-63
2020/12/18 13:30:00;;;;;;;26.12;16.32;;;;;;;7.56;67.52;101332.76;2129511;82;28838;-63
2020/12/18 13:33:03;;;;;;;26.55;15.20;;;;;;;7.55;67.68;101339.86;2128926;83;32183;-64
2020/12/18 13:36:05;;;;;;;27.30;16.70;;;;;;;7.55;67.78;101345.66;2129249;83;33040;-63
2020/12/18 13:39:07;;;;;;;34.25;20.62;;;;;;;7.52;67.88;101348.39;2129171;81;28842;-63
2020/12/18 13:42:11;;;;;;;34.58;22.05;;;;;;;7.51;67.93;101347.96;2172307;80;27754;-65
2020/12/18 13:45:13;;;;;;;38.88;24.15;;;;;;;7.49;68.01;101345.34;2215309;80;28819;-64
2020/12/18 13:48:16;;;;;;;37.30;24.30;;;;;;;7.45;68.09;101343.63;2183056;80;32047;-63
2020/12/18 13:51:18;;;;;;;46.18;29.32;;;;;;;7.41;68.17;101349.48;2215565;80;33631;-64
2020/12/18 13:54:20;;;;;;;42.90;28.57;;;;;;;7.39;68.22;101352.63;2182792;80;29102;-64
2020/12/18 13:57:23;;;;;;;41.20;25.08;;;;;;;7.35;68.28;101354.93;2181441;80;28079;-64
2020/12/18 14:00:26;;;;;;;40.45;24.92;;;;;;;7.30;68.37;101357.69;2215289;79;28850;-63
2020/12/18 14:03:30;;;;;;;36.58;22.27;;;;;;;7.28;68.48;101357.30;2214694;80;27691;-64
2020/12/18 14:06:34;;;;;;;37.08;22.17;;;;;;;7.25;68.60;101355.55;2215304;80;33106;-63
2020/12/18 14:09:37;;;;;;;34.13;21.55;;;;;;;7.24;68.66;101360.45;2215530;80;29169;-64
2020/12/18 14:12:39;;;;;;;32.98;18.77;;;;;;;7.24;68.69;101359.59;2175404;80;27799;-63